sensor_id;sensor_type;location;lat;lon;timestamp;pressure;altitude;pressure_sealevel;temperature;humidity
13209;BME280;6669;42.678;23.332;2023-04-29T00:01:33;94604.38;;;6.96;100.00
13209;BME280;6669;42.678;23.332;2023-04-29T00:04:01;94604.38;;;6.96;100.00
13209;BME280;6669;42.678;23.332;2023-04-29T00:06:30;94596.28;;;6.91;100.00
13209;BME280;6669;42.678;23.332;2023-04-29T00:08:58;94586.75;;;6.73;100.00
13209;BME280;6669;42.678;23.332;2023-04-29T00:11:25;94605.81;;;6.90;100.00
13209;BME280;6669;42.678;23.332;2023-04-29T00:13:53;94601.25;;;6.84;100.00
13209;BME280;6669;42.678;23.332;2023-04-29T00:16:23;94608.91;;;6.76;100.00
13209;BME280;6669;42.678;23.332;2023-04-29T00:18:51;94608.63;;;6.79;100.00
13209;BME280;6669;42.678;23.332;2023-04-29T00:21:19;94617.91;;;6.90;100.00
13209;BME280;6669;42.678;23.332;2023-04-29T00:23:47;94610.75;;;6.83;100.00
13209;BME280;6669;42.678;23.332;2023-04-29T00:26:15;94612.81;;;6.98;100.00
13209;BME280;6669;42.678;23.332;2023-04-29T00:28:43;94614.56;;;6.97;100.00
13209;BME280;6669;42.678;23.332;2023-04-29T00:31:11;94622.78;;;6.93;100.00
13209;BME280;6669;42.678;23.332;2023-04-29T00:33:41;94626.69;;;6.97;100.00
13209;BME280;6669;42.678;23.332;2023-04-29T00:36:10;94620.22;;;6.93;100.00
13209;BME280;6669;42.678;23.332;2023-04-29T00:38:38;94615.13;;;6.83;100.00
13209;BME280;6669;42.678;23.332;2023-04-29T00:41:05;94616.75;;;6.84;100.00
13209;BME280;6669;42.678;23.332;2023-04-29T00:43:33;94615.84;;;6.75;100.00
13209;BME280;6669;42.678;23.332;2023-04-29T00:46:01;94618.13;;;6.78;100.00
13209;BME280;6669;42.678;23.332;2023-04-29T00:48:30;94617.72;;;6.65;100.00
13209;BME280;6669;42.678;23.332;2023-04-29T00:51:00;94607.06;;;6.68;100.00
13209;BME280;6669;42.678;23.332;2023-04-29T00:53:28;94601.53;;;6.63;100.00
13209;BME280;6669;42.678;23.332;2023-04-29T00:55:57;94596.22;;;6.64;100.00
13209;BME280;6669;42.678;23.332;2023-04-29T00:58:26;94596.53;;;6.61;100.00
13209;BME280;6669;42.678;23.332;2023-04-29T01:01:00;94587.97;;;6.61;100.00
13209;BME280;6669;42.678;23.332;2023-04-29T01:03:29;94591.03;;;6.64;100.00
13209;BME280;6669;42.678;23.332;2023-04-29T01:06:07;94588.34;;;6.66;100.00
13209;BME280;6669;42.678;23.332;2023-04-29T01:08:43;94580.06;;;6.62;100.00
13209;BME280;6669;42.678;23.332;2023-04-29T01:11:18;94584.94;;;6.65;100.00
13209;BME280;6669;42.678;23.332;2023-04-29T01:13:51;94586.63;;;6.57;100.00
13209;BME280;6669;42.678;23.332;2023-04-29T01:16:24;94576.09;;;6.50;100.00
13209;BME280;6669;42.678;23.332;2023-04-29T01:18:57;94578.16;;;6.46;100.00
13209;BME280;6669;42.678;23.332;2023-04-29T01:21:28;94580.66;;;6.38;100.00
13209;BME280;6669;42.678;23.332;2023-04-29T01:23:59;94572.19;;;6.28;100.00
13209;BME280;6669;42.678;23.332;2023-04-29T01:26:29;94565.97;;;6.20;100.00
13209;BME280;6669;42.678;23.332;2023-04-29T01:29:09;94577.03;;;6.13;100.00
13209;BME280;6669;42.678;23.332;2023-04-29T01:31:49;94573.97;;;5.99;100.00
13209;BME280;6669;42.678;23.332;2023-04-29T01:34:22;94575.75;;;5.99;100.00
13209;BME280;6669;42.678;23.332;2023-04-29T01:36:59;94576.13;;;5.94;100.00
13209;BME280;6669;42.678;23.332;2023-04-29T01:39:39;94579.81;;;5.92;100.00
13209;BME280;6669;42.678;23.332;2023-04-29T01:42:14;94576.28;;;5.93;100.00
13209;BME280;6669;42.678;23.332;2023-04-29T01:44:46;94571.47;;;5.80;100.00
13209;BME280;6669;42.678;23.332;2023-04-29T01:47:17;94572.28;;;5.80;100.00
13209;BME280;6669;42.678;23.332;2023-04-29T01:49:45;94575.00;;;5.79;100.00
13209;BME280;6669;42.678;23.332;2023-04-29T01:52:13;94572.88;;;5.74;100.00
13209;BME280;6669;42.678;23.332;2023-04-29T01:54:42;94573.16;;;5.71;100.00
13209;BME280;6669;42.678;23.332;2023-04-29T01:57:10;94567.59;;;5.66;100.00
13209;BME280;6669;42.678;23.332;2023-04-29T01:59:38;94575.72;;;5.71;100.00
13209;BME280;6669;42.678;23.332;2023-04-29T02:02:07;94575.63;;;5.63;100.00
13209;BME280;6669;42.678;23.332;2023-04-29T02:04:36;94568.84;;;5.62;100.00
13209;BME280;6669;42.678;23.332;2023-04-29T02:07:04;94579.72;;;5.55;100.00
13209;BME280;6669;42.678;23.332;2023-04-29T02:09:31;94582.00;;;5.59;100.00
13209;BME280;6669;42.678;23.332;2023-04-29T02:12:01;94582.00;;;5.59;100.00
13209;BME280;6669;42.678;23.332;2023-04-29T02:14:30;94581.38;;;5.56;100.00
13209;BME280;6669;42.678;23.332;2023-04-29T02:17:03;94581.91;;;5.50;100.00
13209;BME280;6669;42.678;23.332;2023-04-29T02:19:31;94581.13;;;5.50;100.00
13209;BME280;6669;42.678;23.332;2023-04-29T02:21:59;94588.19;;;5.48;100.00
13209;BME280;6669;42.678;23.332;2023-04-29T02:24:27;94583.16;;;5.46;100.00
13209;BME280;6669;42.678;23.332;2023-04-29T02:26:55;94576.78;;;5.40;100.00
13209;BME280;6669;42.678;23.332;2023-04-29T02:29:24;94576.41;;;5.35;100.00
13209;BME280;6669;42.678;23.332;2023-04-29T02:31:55;94575.59;;;5.35;100.00
13209;BME280;6669;42.678;23.332;2023-04-29T02:34:23;94580.38;;;5.30;100.00
13209;BME280;6669;42.678;23.332;2023-04-29T02:36:51;94569.00;;;5.22;100.00
13209;BME280;6669;42.678;23.332;2023-04-29T02:39:19;94571.19;;;5.17;100.00
13209;BME280;6669;42.678;23.332;2023-04-29T02:41:47;94571.97;;;5.18;100.00
13209;BME280;6669;42.678;23.332;2023-04-29T02:44:15;94568.22;;;5.12;100.00
13209;BME280;6669;42.678;23.332;2023-04-29T02:46:44;94569.31;;;5.10;100.00
13209;BME280;6669;42.678;23.332;2023-04-29T02:49:13;94573.66;;;5.09;100.00
13209;BME280;6669;42.678;23.332;2023-04-29T02:51:41;94576.38;;;4.98;100.00
13209;BME280;6669;42.678;23.332;2023-04-29T02:54:09;94583.44;;;4.86;100.00
13209;BME280;6669;42.678;23.332;2023-04-29T02:56:37;94583.28;;;4.87;100.00
13209;BME280;6669;42.678;23.332;2023-04-29T02:59:05;94589.53;;;4.85;100.00
13209;BME280;6669;42.678;23.332;2023-04-29T03:01:33;94604.19;;;4.84;100.00
13209;BME280;6669;42.678;23.332;2023-04-29T03:04:02;94603.38;;;4.84;100.00
13209;BME280;6669;42.678;23.332;2023-04-29T03:06:31;94600.81;;;4.84;100.00
13209;BME280;6669;42.678;23.332;2023-04-29T03:08:59;94594.81;;;4.83;100.00
13209;BME280;6669;42.678;23.332;2023-04-29T03:11:26;94595.38;;;4.77;100.00
13209;BME280;6669;42.678;23.332;2023-04-29T03:13:54;94581.69;;;4.67;100.00
13209;BME280;6669;42.678;23.332;2023-04-29T03:16:23;94584.13;;;4.68;100.00
13209;BME280;6669;42.678;23.332;2023-04-29T03:18:51;94595.09;;;4.70;100.00
13209;BME280;6669;42.678;23.332;2023-04-29T03:21:20;94592.94;;;4.75;100.00
13209;BME280;6669;42.678;23.332;2023-04-29T03:23:48;94599.84;;;4.65;100.00
13209;BME280;6669;42.678;23.332;2023-04-29T03:26:16;94599.72;;;4.67;100.00
13209;BME280;6669;42.678;23.332;2023-04-29T03:28:44;94612.75;;;4.75;100.00
13209;BME280;6669;42.678;23.332;2023-04-29T03:31:12;94616.78;;;4.68;100.00
13209;BME280;6669;42.678;23.332;2023-04-29T03:33:42;94617.88;;;4.75;100.00
13209;BME280;6669;42.678;23.332;2023-04-29T03:36:10;94623.00;;;4.85;100.00
13209;BME280;6669;42.678;23.332;2023-04-29T03:38:40;94629.00;;;4.85;100.00
13209;BME280;6669;42.678;23.332;2023-04-29T03:41:08;94626.28;;;4.87;100.00
13209;BME280;6669;42.678;23.332;2023-04-29T03:43:36;94627.34;;;4.84;100.00
13209;BME280;6669;42.678;23.332;2023-04-29T03:46:04;94629.94;;;4.84;100.00
13209;BME280;6669;42.678;23.332;2023-04-29T03:48:32;94631.69;;;4.94;100.00
13209;BME280;6669;42.678;23.332;2023-04-29T03:51:00;94625.59;;;4.95;100.00
13209;BME280;6669;42.678;23.332;2023-04-29T03:53:28;94620.97;;;4.98;100.00
13209;BME280;6669;42.678;23.332;2023-04-29T03:55:57;94619.09;;;5.00;100.00
13209;BME280;6669;42.678;23.332;2023-04-29T03:58:25;94615.13;;;5.06;100.00
13209;BME280;6669;42.678;23.332;2023-04-29T04:00:53;94615.53;;;5.11;100.00
13209;BME280;6669;42.678;23.332;2023-04-29T04:03:21;94614.28;;;5.15;100.00
13209;BME280;6669;42.678;23.332;2023-04-29T04:05:51;94610.91;;;5.24;100.00
13209;BME280;6669;42.678;23.332;2023-04-29T04:08:19;94610.47;;;5.29;100.00
13209;BME280;6669;42.678;23.332;2023-04-29T04:10:47;94628.09;;;5.44;100.00
13209;BME280;6669;42.678;23.332;2023-04-29T04:13:16;94635.22;;;5.60;100.00
13209;BME280;6669;42.678;23.332;2023-04-29T04:15:48;94626.78;;;5.67;100.00
13209;BME280;6669;42.678;23.332;2023-04-29T04:18:17;94629.88;;;5.71;100.00
13209;BME280;6669;42.678;23.332;2023-04-29T04:20:45;94632.28;;;5.82;100.00
13209;BME280;6669;42.678;23.332;2023-04-29T04:23:13;94623.59;;;5.83;100.00
13209;BME280;6669;42.678;23.332;2023-04-29T04:25:44;94622.59;;;5.94;100.00
13209;BME280;6669;42.678;23.332;2023-04-29T04:28:12;94619.88;;;5.96;100.00
13209;BME280;6669;42.678;23.332;2023-04-29T04:30:41;94623.00;;;5.99;100.00
13209;BME280;6669;42.678;23.332;2023-04-29T04:33:11;94617.84;;;5.99;100.00
13209;BME280;6669;42.678;23.332;2023-04-29T04:35:39;94614.97;;;6.02;100.00
13209;BME280;6669;42.678;23.332;2023-04-29T04:38:07;94623.47;;;6.13;100.00
13209;BME280;6669;42.678;23.332;2023-04-29T04:40:39;94630.41;;;6.12;100.00
13209;BME280;6669;42.678;23.332;2023-04-29T04:43:08;94630.69;;;6.09;100.00
13209;BME280;6669;42.678;23.332;2023-04-29T04:45:36;94631.94;;;6.05;100.00
13209;BME280;6669;42.678;23.332;2023-04-29T04:48:05;94631.75;;;6.16;100.00
13209;BME280;6669;42.678;23.332;2023-04-29T04:50:33;94642.44;;;6.21;100.00
13209;BME280;6669;42.678;23.332;2023-04-29T04:53:01;94639.22;;;6.37;100.00
13209;BME280;6669;42.678;23.332;2023-04-29T04:55:29;94629.56;;;6.40;100.00
13209;BME280;6669;42.678;23.332;2023-04-29T04:57:59;94631.41;;;6.47;100.00
13209;BME280;6669;42.678;23.332;2023-04-29T05:00:26;94629.56;;;6.58;100.00
13209;BME280;6669;42.678;23.332;2023-04-29T05:02:54;94616.88;;;6.64;100.00
13209;BME280;6669;42.678;23.332;2023-04-29T05:05:24;94605.31;;;6.68;100.00
13209;BME280;6669;42.678;23.332;2023-04-29T05:07:52;94608.69;;;6.87;100.00
13209;BME280;6669;42.678;23.332;2023-04-29T05:10:20;94611.34;;;6.95;100.00
13209;BME280;6669;42.678;23.332;2023-04-29T05:12:51;94614.34;;;7.09;100.00
13209;BME280;6669;42.678;23.332;2023-04-29T05:15:19;94605.03;;;7.16;100.00
13209;BME280;6669;42.678;23.332;2023-04-29T05:17:47;94600.38;;;7.19;100.00
13209;BME280;6669;42.678;23.332;2023-04-29T05:20:15;94594.94;;;7.31;100.00
13209;BME280;6669;42.678;23.332;2023-04-29T05:22:45;94583.22;;;7.45;100.00
13209;BME280;6669;42.678;23.332;2023-04-29T05:25:13;94586.50;;;7.55;100.00
13209;BME280;6669;42.678;23.332;2023-04-29T05:27:41;94586.53;;;7.63;100.00
13209;BME280;6669;42.678;23.332;2023-04-29T05:30:09;94591.88;;;7.62;100.00
13209;BME280;6669;42.678;23.332;2023-04-29T05:32:37;94587.56;;;7.71;100.00
13209;BME280;6669;42.678;23.332;2023-04-29T05:35:06;94589.19;;;7.72;100.00
13209;BME280;6669;42.678;23.332;2023-04-29T05:37:35;94584.84;;;7.80;100.00
13209;BME280;6669;42.678;23.332;2023-04-29T05:40:07;94569.28;;;7.72;100.00
13209;BME280;6669;42.678;23.332;2023-04-29T05:42:35;94583.06;;;7.81;100.00
13209;BME280;6669;42.678;23.332;2023-04-29T05:45:04;94573.56;;;7.98;100.00
13209;BME280;6669;42.678;23.332;2023-04-29T05:47:32;94574.78;;;8.20;100.00
13209;BME280;6669;42.678;23.332;2023-04-29T05:50:00;94576.91;;;8.33;100.00
13209;BME280;6669;42.678;23.332;2023-04-29T05:52:28;94585.72;;;8.48;100.00
13209;BME280;6669;42.678;23.332;2023-04-29T05:54:56;94583.88;;;8.32;100.00
13209;BME280;6669;42.678;23.332;2023-04-29T05:57:25;94592.63;;;8.40;100.00
13209;BME280;6669;42.678;23.332;2023-04-29T05:59:53;94594.44;;;8.47;100.00
13209;BME280;6669;42.678;23.332;2023-04-29T06:02:21;94595.75;;;8.52;100.00
13209;BME280;6669;42.678;23.332;2023-04-29T06:04:50;94584.44;;;8.61;100.00
13209;BME280;6669;42.678;23.332;2023-04-29T06:07:19;94588.31;;;8.65;100.00
13209;BME280;6669;42.678;23.332;2023-04-29T06:09:47;94595.47;;;8.63;100.00
13209;BME280;6669;42.678;23.332;2023-04-29T06:12:15;94586.38;;;8.75;100.00
13209;BME280;6669;42.678;23.332;2023-04-29T06:14:44;94585.09;;;8.71;100.00
13209;BME280;6669;42.678;23.332;2023-04-29T06:17:12;94580.69;;;8.72;100.00
13209;BME280;6669;42.678;23.332;2023-04-29T06:19:40;94578.78;;;8.74;100.00
13209;BME280;6669;42.678;23.332;2023-04-29T06:22:08;94586.38;;;8.75;100.00
13209;BME280;6669;42.678;23.332;2023-04-29T06:24:36;94585.75;;;8.73;100.00
13209;BME280;6669;42.678;23.332;2023-04-29T06:27:04;94590.75;;;8.66;100.00
13209;BME280;6669;42.678;23.332;2023-04-29T06:29:32;94596.09;;;8.65;100.00
13209;BME280;6669;42.678;23.332;2023-04-29T06:32:01;94593.53;;;8.73;100.00
13209;BME280;6669;42.678;23.332;2023-04-29T06:34:30;94589.63;;;8.77;100.00
13209;BME280;6669;42.678;23.332;2023-04-29T06:36:57;94587.34;;;8.91;100.00
13209;BME280;6669;42.678;23.332;2023-04-29T06:39:25;94586.19;;;9.10;100.00
13209;BME280;6669;42.678;23.332;2023-04-29T06:41:53;94589.78;;;9.09;100.00
13209;BME280;6669;42.678;23.332;2023-04-29T06:44:22;94579.22;;;9.27;100.00
13209;BME280;6669;42.678;23.332;2023-04-29T06:46:50;94569.47;;;9.37;100.00
13209;BME280;6669;42.678;23.332;2023-04-29T06:49:19;94582.06;;;9.57;100.00
13209;BME280;6669;42.678;23.332;2023-04-29T06:51:48;94585.94;;;9.69;100.00
13209;BME280;6669;42.678;23.332;2023-04-29T06:54:15;94584.44;;;9.75;100.00
13209;BME280;6669;42.678;23.332;2023-04-29T06:56:43;94590.28;;;9.85;100.00
13209;BME280;6669;42.678;23.332;2023-04-29T06:59:12;94584.56;;;9.90;100.00
13209;BME280;6669;42.678;23.332;2023-04-29T07:01:40;94579.66;;;9.95;100.00
13209;BME280;6669;42.678;23.332;2023-04-29T07:04:11;94578.75;;;9.88;100.00
13209;BME280;6669;42.678;23.332;2023-04-29T07:06:40;94573.84;;;9.93;100.00
13209;BME280;6669;42.678;23.332;2023-04-29T07:09:12;94569.50;;;9.85;100.00
13209;BME280;6669;42.678;23.332;2023-04-29T07:11:40;94565.47;;;9.82;100.00
13209;BME280;6669;42.678;23.332;2023-04-29T07:14:08;94560.69;;;9.94;100.00
13209;BME280;6669;42.678;23.332;2023-04-29T07:16:36;94568.91;;;10.06;100.00
13209;BME280;6669;42.678;23.332;2023-04-29T07:19:04;94570.81;;;10.21;100.00
13209;BME280;6669;42.678;23.332;2023-04-29T07:21:32;94569.28;;;10.26;100.00
13209;BME280;6669;42.678;23.332;2023-04-29T07:24:03;94570.56;;;10.30;100.00
13209;BME280;6669;42.678;23.332;2023-04-29T07:26:31;94571.03;;;10.34;100.00
13209;BME280;6669;42.678;23.332;2023-04-29T07:28:59;94566.81;;;10.33;100.00
13209;BME280;6669;42.678;23.332;2023-04-29T07:31:27;94562.75;;;10.39;100.00
13209;BME280;6669;42.678;23.332;2023-04-29T07:33:55;94571.34;;;10.39;100.00
13209;BME280;6669;42.678;23.332;2023-04-29T07:36:23;94572.41;;;10.53;100.00
13209;BME280;6669;42.678;23.332;2023-04-29T07:38:51;94570.59;;;10.54;100.00
13209;BME280;6669;42.678;23.332;2023-04-29T07:41:20;94576.22;;;10.66;100.00
13209;BME280;6669;42.678;23.332;2023-04-29T07:43:48;94569.94;;;10.83;100.00
13209;BME280;6669;42.678;23.332;2023-04-29T07:46:16;94570.69;;;11.07;100.00
13209;BME280;6669;42.678;23.332;2023-04-29T07:48:44;94565.25;;;11.17;100.00
13209;BME280;6669;42.678;23.332;2023-04-29T07:51:12;94564.09;;;11.19;100.00
13209;BME280;6669;42.678;23.332;2023-04-29T07:53:40;94552.53;;;11.52;97.96
13209;BME280;6669;42.678;23.332;2023-04-29T07:56:09;94555.78;;;11.84;94.97
13209;BME280;6669;42.678;23.332;2023-04-29T07:58:38;94545.88;;;11.94;87.85
13209;BME280;6669;42.678;23.332;2023-04-29T08:01:07;94547.59;;;12.17;86.11
13209;BME280;6669;42.678;23.332;2023-04-29T08:03:35;94547.19;;;12.56;84.53
13209;BME280;6669;42.678;23.332;2023-04-29T08:06:07;94544.75;;;12.77;79.69
13209;BME280;6669;42.678;23.332;2023-04-29T08:08:35;94541.03;;;12.86;78.20
13209;BME280;6669;42.678;23.332;2023-04-29T08:11:04;94541.13;;;12.78;76.18
13209;BME280;6669;42.678;23.332;2023-04-29T08:13:32;94538.19;;;12.81;74.96
13209;BME280;6669;42.678;23.332;2023-04-29T08:16:01;94541.91;;;12.93;74.36
13209;BME280;6669;42.678;23.332;2023-04-29T08:18:29;94538.34;;;13.01;74.38
13209;BME280;6669;42.678;23.332;2023-04-29T08:20:57;94524.94;;;13.11;74.89
13209;BME280;6669;42.678;23.332;2023-04-29T08:23:25;94524.59;;;13.42;74.73
13209;BME280;6669;42.678;23.332;2023-04-29T08:25:53;94523.75;;;13.70;71.31
13209;BME280;6669;42.678;23.332;2023-04-29T08:28:21;94523.22;;;13.88;70.47
13209;BME280;6669;42.678;23.332;2023-04-29T08:30:49;94520.03;;;13.99;71.32
13209;BME280;6669;42.678;23.332;2023-04-29T08:33:19;94524.50;;;14.05;71.09
13209;BME280;6669;42.678;23.332;2023-04-29T08:35:48;94528.34;;;14.16;68.79
13209;BME280;6669;42.678;23.332;2023-04-29T08:38:16;94528.81;;;14.40;69.69
13209;BME280;6669;42.678;23.332;2023-04-29T08:40:45;94524.00;;;14.37;67.12
13209;BME280;6669;42.678;23.332;2023-04-29T08:43:13;94527.44;;;14.51;67.97
13209;BME280;6669;42.678;23.332;2023-04-29T08:45:42;94523.84;;;14.65;68.07
13209;BME280;6669;42.678;23.332;2023-04-29T08:48:10;94520.66;;;14.77;68.02
13209;BME280;6669;42.678;23.332;2023-04-29T08:50:41;94516.19;;;14.64;68.23
13209;BME280;6669;42.678;23.332;2023-04-29T08:53:10;94509.94;;;14.58;67.46
13209;BME280;6669;42.678;23.332;2023-04-29T08:55:40;94501.50;;;14.76;67.10
13209;BME280;6669;42.678;23.332;2023-04-29T08:58:12;94507.56;;;14.83;66.18
13209;BME280;6669;42.678;23.332;2023-04-29T09:00:42;94503.53;;;14.87;65.77
13209;BME280;6669;42.678;23.332;2023-04-29T09:03:13;94501.31;;;15.11;66.72
13209;BME280;6669;42.678;23.332;2023-04-29T09:05:52;94488.03;;;14.93;66.64
13209;BME280;6669;42.678;23.332;2023-04-29T09:08:20;94496.06;;;15.31;66.06
13209;BME280;6669;42.678;23.332;2023-04-29T09:10:50;94495.16;;;15.71;65.16
13209;BME280;6669;42.678;23.332;2023-04-29T09:13:25;94487.94;;;16.12;64.46
13209;BME280;6669;42.678;23.332;2023-04-29T09:19:35;94488.69;;;16.26;62.32
13209;BME280;6669;42.678;23.332;2023-04-29T09:22:04;94482.38;;;16.33;60.93
13209;BME280;6669;42.678;23.332;2023-04-29T09:24:33;94486.63;;;16.34;60.36
13209;BME280;6669;42.678;23.332;2023-04-29T09:27:03;94481.94;;;16.43;60.64
13209;BME280;6669;42.678;23.332;2023-04-29T09:29:31;94480.06;;;16.50;60.61
13209;BME280;6669;42.678;23.332;2023-04-29T09:32:00;94477.44;;;16.76;60.93
13209;BME280;6669;42.678;23.332;2023-04-29T09:34:45;94477.09;;;16.97;59.60
13209;BME280;6669;42.678;23.332;2023-04-29T09:37:24;94469.31;;;16.84;58.27
13209;BME280;6669;42.678;23.332;2023-04-29T09:39:53;94476.63;;;16.50;57.65
13209;BME280;6669;42.678;23.332;2023-04-29T09:42:22;94467.75;;;16.51;57.92
13209;BME280;6669;42.678;23.332;2023-04-29T09:44:50;94473.53;;;16.60;56.86
13209;BME280;6669;42.678;23.332;2023-04-29T09:47:28;94453.16;;;16.30;56.50
13209;BME280;6669;42.678;23.332;2023-04-29T09:50:09;94470.25;;;16.64;57.34
13209;BME280;6669;42.678;23.332;2023-04-29T09:52:40;94461.50;;;17.03;57.88
13209;BME280;6669;42.678;23.332;2023-04-29T09:55:09;94446.88;;;17.13;55.52
13209;BME280;6669;42.678;23.332;2023-04-29T09:57:38;94447.94;;;17.31;55.43
13209;BME280;6669;42.678;23.332;2023-04-29T10:00:11;94441.19;;;17.35;56.01
13209;BME280;6669;42.678;23.332;2023-04-29T10:02:41;94443.41;;;17.57;55.21
13209;BME280;6669;42.678;23.332;2023-04-29T10:05:10;94439.44;;;17.66;54.86
13209;BME280;6669;42.678;23.332;2023-04-29T10:07:40;94431.91;;;17.51;54.07
13209;BME280;6669;42.678;23.332;2023-04-29T10:10:09;94434.84;;;17.43;54.09
13209;BME280;6669;42.678;23.332;2023-04-29T10:12:39;94427.03;;;17.55;54.07
13209;BME280;6669;42.678;23.332;2023-04-29T10:15:15;94432.38;;;17.48;55.57
13209;BME280;6669;42.678;23.332;2023-04-29T10:17:46;94426.97;;;17.61;54.76
13209;BME280;6669;42.678;23.332;2023-04-29T10:20:21;94415.34;;;17.69;53.46
13209;BME280;6669;42.678;23.332;2023-04-29T10:22:52;94419.91;;;17.92;53.52
13209;BME280;6669;42.678;23.332;2023-04-29T10:25:24;94418.28;;;18.10;53.09
13209;BME280;6669;42.678;23.332;2023-04-29T10:27:54;94414.16;;;18.44;53.35
13209;BME280;6669;42.678;23.332;2023-04-29T10:30:23;94406.25;;;18.44;53.61
13209;BME280;6669;42.678;23.332;2023-04-29T10:32:51;94409.97;;;18.25;52.10
13209;BME280;6669;42.678;23.332;2023-04-29T10:35:20;94401.88;;;18.26;52.26
13209;BME280;6669;42.678;23.332;2023-04-29T10:37:53;94400.34;;;17.88;52.30
13209;BME280;6669;42.678;23.332;2023-04-29T10:40:27;94413.69;;;17.87;51.70
13209;BME280;6669;42.678;23.332;2023-04-29T10:42:58;94412.03;;;17.74;52.57
13209;BME280;6669;42.678;23.332;2023-04-29T10:45:27;94420.31;;;17.22;52.57
13209;BME280;6669;42.678;23.332;2023-04-29T10:48:10;94406.53;;;16.82;53.77
13209;BME280;6669;42.678;23.332;2023-04-29T10:53:57;94399.59;;;17.51;53.16
13209;BME280;6669;42.678;23.332;2023-04-29T10:56:35;94400.06;;;17.78;53.87
13209;BME280;6669;42.678;23.332;2023-04-29T10:59:04;94407.19;;;18.08;52.66
13209;BME280;6669;42.678;23.332;2023-04-29T11:01:42;94410.03;;;18.06;51.16
13209;BME280;6669;42.678;23.332;2023-04-29T11:04:12;94405.16;;;18.22;52.35
13209;BME280;6669;42.678;23.332;2023-04-29T11:06:43;94397.38;;;18.15;53.08
13209;BME280;6669;42.678;23.332;2023-04-29T11:09:14;94398.38;;;18.02;51.86
13209;BME280;6669;42.678;23.332;2023-04-29T11:11:47;94399.91;;;17.73;52.24
13209;BME280;6669;42.678;23.332;2023-04-29T11:14:21;94402.22;;;17.32;51.46
13209;BME280;6669;42.678;23.332;2023-04-29T11:16:51;94397.63;;;17.09;51.73
13209;BME280;6669;42.678;23.332;2023-04-29T11:19:23;94393.91;;;16.98;50.04
13209;BME280;6669;42.678;23.332;2023-04-29T11:22:13;94392.53;;;16.89;50.20
13209;BME280;6669;42.678;23.332;2023-04-29T11:25:01;94389.97;;;16.82;49.62
13209;BME280;6669;42.678;23.332;2023-04-29T11:27:31;94386.72;;;16.87;51.20
13209;BME280;6669;42.678;23.332;2023-04-29T11:30:00;94391.06;;;16.99;48.17
13209;BME280;6669;42.678;23.332;2023-04-29T11:32:31;94391.28;;;16.98;48.68
13209;BME280;6669;42.678;23.332;2023-04-29T11:35:09;94392.81;;;17.06;49.64
13209;BME280;6669;42.678;23.332;2023-04-29T11:37:38;94392.28;;;16.97;47.85
13209;BME280;6669;42.678;23.332;2023-04-29T11:40:09;94386.41;;;16.51;48.19
13209;BME280;6669;42.678;23.332;2023-04-29T11:42:40;94386.09;;;16.41;48.70
13209;BME280;6669;42.678;23.332;2023-04-29T11:45:09;94381.41;;;16.49;49.31
13209;BME280;6669;42.678;23.332;2023-04-29T11:47:42;94377.78;;;16.44;50.37
13209;BME280;6669;42.678;23.332;2023-04-29T11:50:11;94380.16;;;16.52;50.79
13209;BME280;6669;42.678;23.332;2023-04-29T11:52:39;94375.00;;;16.64;51.43
13209;BME280;6669;42.678;23.332;2023-04-29T11:55:09;94382.94;;;16.57;50.81
13209;BME280;6669;42.678;23.332;2023-04-29T11:57:37;94387.28;;;16.45;49.41
13209;BME280;6669;42.678;23.332;2023-04-29T12:00:08;94384.00;;;16.24;49.77
13209;BME280;6669;42.678;23.332;2023-04-29T12:02:38;94384.69;;;16.13;52.10
13209;BME280;6669;42.678;23.332;2023-04-29T12:05:11;94381.56;;;15.91;51.06
13209;BME280;6669;42.678;23.332;2023-04-29T12:07:41;94374.09;;;15.94;51.48
13209;BME280;6669;42.678;23.332;2023-04-29T12:10:11;94389.88;;;15.88;51.38
13209;BME280;6669;42.678;23.332;2023-04-29T12:12:39;94378.03;;;15.72;52.54
13209;BME280;6669;42.678;23.332;2023-04-29T12:15:10;94373.66;;;15.65;53.47
13209;BME280;6669;42.678;23.332;2023-04-29T12:17:38;94376.06;;;15.60;54.05
13209;BME280;6669;42.678;23.332;2023-04-29T12:20:09;94372.03;;;15.58;54.06
13209;BME280;6669;42.678;23.332;2023-04-29T12:22:38;94369.59;;;15.69;55.28
13209;BME280;6669;42.678;23.332;2023-04-29T12:25:07;94367.31;;;15.80;54.38
13209;BME280;6669;42.678;23.332;2023-04-29T12:27:38;94368.13;;;15.87;54.75
13209;BME280;6669;42.678;23.332;2023-04-29T12:30:07;94356.13;;;15.98;53.71
13209;BME280;6669;42.678;23.332;2023-04-29T12:32:36;94359.44;;;15.87;53.36
13209;BME280;6669;42.678;23.332;2023-04-29T12:35:05;94354.06;;;16.07;53.94
13209;BME280;6669;42.678;23.332;2023-04-29T12:37:42;94358.00;;;15.91;53.98
13209;BME280;6669;42.678;23.332;2023-04-29T12:40:12;94349.44;;;16.02;54.65
13209;BME280;6669;42.678;23.332;2023-04-29T12:42:43;94351.66;;;16.05;55.25
13209;BME280;6669;42.678;23.332;2023-04-29T12:45:25;94352.84;;;16.09;55.75
13209;BME280;6669;42.678;23.332;2023-04-29T12:47:55;94354.59;;;16.15;55.79
13209;BME280;6669;42.678;23.332;2023-04-29T12:50:29;94355.31;;;16.29;56.38
13209;BME280;6669;42.678;23.332;2023-04-29T12:52:58;94351.53;;;16.25;56.27
13209;BME280;6669;42.678;23.332;2023-04-29T12:55:27;94348.28;;;16.23;56.40
13209;BME280;6669;42.678;23.332;2023-04-29T12:57:56;94339.84;;;16.21;56.54
13209;BME280;6669;42.678;23.332;2023-04-29T13:00:26;94332.81;;;16.40;56.49
13209;BME280;6669;42.678;23.332;2023-04-29T13:02:54;94341.22;;;16.49;55.94
13209;BME280;6669;42.678;23.332;2023-04-29T13:05:22;94342.72;;;16.63;55.79
13209;BME280;6669;42.678;23.332;2023-04-29T13:07:51;94343.22;;;16.54;55.46
13209;BME280;6669;42.678;23.332;2023-04-29T13:10:19;94349.72;;;16.88;55.47
13209;BME280;6669;42.678;23.332;2023-04-29T13:12:47;94348.94;;;16.88;55.54
13209;BME280;6669;42.678;23.332;2023-04-29T13:15:17;94347.06;;;16.95;56.20
13209;BME280;6669;42.678;23.332;2023-04-29T13:17:45;94350.84;;;16.99;55.60
13209;BME280;6669;42.678;23.332;2023-04-29T13:20:12;94337.97;;;17.16;55.81